createdAt,value
2023-02-11T00:01:22.573Z,62.74
2023-02-11T00:03:53.083Z,62.79
2023-02-11T00:06:23.870Z,62.92
2023-02-11T00:08:54.646Z,62.84
2023-02-11T00:11:29.996Z,62.62
2023-02-11T00:14:02.187Z,62.71
2023-02-11T00:16:33.498Z,62.58
2023-02-11T00:19:06.297Z,62.99
2023-02-11T00:21:36.529Z,63.27
2023-02-11T00:24:07.633Z,63.08
2023-02-11T00:26:38.488Z,62.93
2023-02-11T00:29:09.237Z,63.37
2023-02-11T00:31:39.941Z,63.33
2023-02-11T00:34:10.585Z,63.66
2023-02-11T00:36:40.880Z,63.58
2023-02-11T00:39:11.658Z,63.70
2023-02-11T00:41:41.969Z,63.56
2023-02-11T00:44:12.991Z,63.14
2023-02-11T00:46:43.731Z,63.66
2023-02-11T00:49:14.381Z,63.60
2023-02-11T00:51:44.705Z,63.50
2023-02-11T00:54:14.922Z,63.66
2023-02-11T00:56:45.274Z,63.41
2023-02-11T00:59:16.209Z,63.15
2023-02-11T01:01:46.860Z,63.12
2023-02-11T01:04:17.296Z,63.09
2023-02-11T01:06:48.173Z,63.04
2023-02-11T01:09:19.760Z,62.92
2023-02-11T01:11:50.034Z,62.87
2023-02-11T01:14:21.648Z,62.89
2023-02-11T01:16:51.946Z,62.96
2023-02-11T01:19:22.334Z,62.82
2023-02-11T01:21:53.753Z,63.13
2023-02-11T01:24:24.438Z,62.77
2023-02-11T01:26:54.772Z,62.82
2023-02-11T01:29:25.126Z,63.19
2023-02-11T01:31:55.743Z,63.01
2023-02-11T01:34:26.066Z,63.11
2023-02-11T01:36:59.767Z,63.43
2023-02-11T01:39:33.233Z,63.65
2023-02-11T01:42:03.705Z,63.50
2023-02-11T01:44:35.625Z,63.46
2023-02-11T01:47:07.886Z,63.43
2023-02-11T01:49:43.466Z,63.42
2023-02-11T01:52:33.948Z,63.64
2023-02-11T01:55:24.866Z,63.72
2023-02-11T01:57:57.863Z,63.99
2023-02-11T02:00:31.459Z,64.32
2023-02-11T02:03:06.324Z,63.60
2023-02-11T02:05:41.167Z,63.98
2023-02-11T02:08:15.525Z,63.64
2023-02-11T02:10:48.604Z,63.50
2023-02-11T02:13:19.137Z,63.52
2023-02-11T02:15:51.880Z,63.74
2023-02-11T02:18:34.567Z,63.59
2023-02-11T02:21:29.412Z,63.69
2023-02-11T02:24:11.537Z,63.68
2023-02-11T02:27:04.064Z,64.04
2023-02-11T02:29:58.286Z,64.04
2023-02-11T02:32:48.811Z,64.06
2023-02-11T02:35:29.274Z,63.38
2023-02-11T02:38:03.859Z,63.62
2023-02-11T02:40:35.924Z,63.41
2023-02-11T02:43:06.682Z,63.77
2023-02-11T02:45:37.072Z,63.82
2023-02-11T02:48:07.645Z,63.82
2023-02-11T02:50:39.911Z,63.45
2023-02-11T02:53:20.994Z,63.40
2023-02-11T02:56:03.514Z,63.77
2023-02-11T02:58:51.964Z,63.36
2023-02-11T03:01:30.630Z,63.42
2023-02-11T03:04:06.665Z,63.14
2023-02-11T03:06:47.060Z,63.40
2023-02-11T03:09:22.159Z,63.33
2023-02-11T03:11:52.548Z,63.38
2023-02-11T03:14:24.153Z,62.90
2023-02-11T03:16:55.559Z,62.81
2023-02-11T03:19:37.335Z,62.79
2023-02-11T03:22:11.552Z,63.08
2023-02-11T03:24:42.722Z,63.09
2023-02-11T03:27:18.987Z,63.01
2023-02-11T03:29:54.091Z,63.23
2023-02-11T03:32:27.845Z,63.41
2023-02-11T03:35:00.016Z,62.98
2023-02-11T03:37:33.980Z,62.79
2023-02-11T03:40:07.640Z,62.56
2023-02-11T03:42:42.717Z,63.04
2023-02-11T03:45:17.164Z,63.11
2023-02-11T03:47:49.646Z,62.91
2023-02-11T03:50:20.974Z,63.11
2023-02-11T03:52:52.328Z,62.27
2023-02-11T03:55:25.653Z,62.42
2023-02-11T03:57:55.987Z,62.17
2023-02-11T04:00:32.766Z,62.27
2023-02-11T04:03:03.624Z,61.88
2023-02-11T04:05:34.237Z,61.76
2023-02-11T04:08:04.657Z,61.70
2023-02-11T04:10:35.069Z,61.58
2023-02-11T04:13:05.623Z,61.56
2023-02-11T04:15:36.146Z,61.72
2023-02-11T04:18:06.727Z,61.53
2023-02-11T04:20:37.300Z,61.79
2023-02-11T04:23:07.694Z,62.19
2023-02-11T04:25:38.684Z,62.28
2023-02-11T04:28:09.025Z,62.41
2023-02-11T04:30:39.412Z,62.40
2023-02-11T04:33:09.987Z,61.93
2023-02-11T04:35:40.469Z,62.07
2023-02-11T04:38:11.150Z,61.93
2023-02-11T04:40:41.746Z,61.95
2023-02-11T04:43:11.910Z,61.93
2023-02-11T04:45:42.322Z,61.89
2023-02-11T04:48:13.354Z,61.89
2023-02-11T04:50:44.208Z,61.90
2023-02-11T04:53:19.812Z,61.41
2023-02-11T04:55:52.302Z,61.94
2023-02-11T04:58:24.245Z,61.80
2023-02-11T05:00:55.022Z,61.91
2023-02-11T05:03:25.973Z,61.85
2023-02-11T05:05:56.492Z,61.84
2023-02-11T05:08:26.653Z,62.20
2023-02-11T05:10:57.449Z,61.80
2023-02-11T05:13:27.736Z,61.88
2023-02-11T05:15:58.674Z,61.73
2023-02-11T05:18:28.865Z,61.48
2023-02-11T05:20:59.661Z,61.49
2023-02-11T05:23:36.309Z,61.23
2023-02-11T05:26:08.055Z,61.13
2023-02-11T05:28:40.031Z,61.15
2023-02-11T05:31:11.708Z,61.16
2023-02-11T05:33:43.400Z,61.20
2023-02-11T05:36:14.789Z,61.12
2023-02-11T05:38:45.381Z,60.81
2023-02-11T05:41:16.253Z,61.13
2023-02-11T05:43:48.232Z,60.69
2023-02-11T05:46:18.966Z,60.74
2023-02-11T05:48:49.399Z,60.66
2023-02-11T05:51:19.849Z,60.27
2023-02-11T05:53:50.436Z,60.64
2023-02-11T05:56:21.832Z,60.62
2023-02-11T05:58:52.318Z,60.44
2023-02-11T06:01:24.511Z,60.34
2023-02-11T06:03:55.544Z,60.43
2023-02-11T06:06:32.795Z,60.67
2023-02-11T06:09:06.299Z,60.46
2023-02-11T06:11:39.430Z,60.34
2023-02-11T06:14:11.840Z,60.20
2023-02-11T06:16:46.350Z,59.88
2023-02-11T06:19:17.633Z,59.80
2023-02-11T06:21:53.008Z,59.92
2023-02-11T06:24:54.742Z,59.52
2023-02-11T06:27:20.644Z,59.81
2023-02-11T06:29:52.132Z,59.47
2023-02-11T06:35:18.520Z,59.87
2023-02-11T06:37:54.052Z,59.49
2023-02-11T06:40:25.040Z,59.42
2023-02-11T06:42:56.266Z,58.97
2023-02-11T06:45:28.547Z,58.66
2023-02-11T06:47:59.375Z,58.35
2023-02-11T06:50:33.906Z,58.43
2023-02-11T06:53:04.872Z,58.16
2023-02-11T06:55:37.035Z,57.90
2023-02-11T06:58:11.907Z,57.71
2023-02-11T07:00:42.786Z,57.36
2023-02-11T07:03:13.609Z,57.06
2023-02-11T07:05:45.249Z,56.84
2023-02-11T07:08:16.483Z,56.55
2023-02-11T07:10:47.504Z,56.33
2023-02-11T07:13:19.641Z,55.94
2023-02-11T07:15:51.808Z,55.42
2023-02-11T07:18:25.045Z,55.15
2023-02-11T07:20:55.659Z,54.46
2023-02-11T07:23:32.222Z,54.18
2023-02-11T07:26:08.942Z,52.93
2023-02-11T07:28:40.412Z,51.91
2023-02-11T07:31:13.364Z,51.55
2023-02-11T07:33:53.893Z,49.78
2023-02-11T07:36:26.806Z,46.71
2023-02-11T07:38:59.889Z,42.75
2023-02-11T07:41:31.484Z,38.87
2023-02-11T07:44:05.420Z,34.90
2023-02-11T07:46:36.129Z,31.46
2023-02-11T07:49:06.750Z,29.20
2023-02-11T07:51:39.304Z,27.00
2023-02-11T07:54:11.593Z,25.70
2023-02-11T07:56:41.771Z,24.12
2023-02-11T07:59:13.353Z,22.47
2023-02-11T08:01:43.861Z,21.68
2023-02-11T08:04:15.935Z,21.60
2023-02-11T08:06:46.172Z,22.19
2023-02-11T08:09:17.874Z,23.21
2023-02-11T08:11:50.003Z,23.90
2023-02-11T08:14:21.161Z,24.85
2023-02-11T08:16:51.929Z,25.56
2023-02-11T08:19:37.727Z,26.48
2023-02-11T08:22:33.353Z,27.26
2023-02-11T08:25:07.556Z,27.93
2023-02-11T08:27:39.074Z,28.70
2023-02-11T08:30:11.971Z,29.02
2023-02-11T08:32:47.699Z,29.18
2023-02-11T08:35:19.584Z,30.30
2023-02-11T08:37:50.555Z,30.88
2023-02-11T08:40:21.669Z,31.14
2023-02-11T08:42:52.540Z,31.56
2023-02-11T08:45:25.329Z,31.94
2023-02-11T08:47:56.190Z,32.41
2023-02-11T08:50:28.459Z,33.42
2023-02-11T08:52:58.938Z,33.84
2023-02-11T08:55:29.203Z,33.77
2023-02-11T08:57:59.874Z,33.34
2023-02-11T09:00:31.465Z,33.54
2023-02-11T09:03:02.573Z,33.40
2023-02-11T09:05:42.191Z,33.46
2023-02-11T09:08:16.635Z,33.57
2023-02-11T09:10:49.424Z,33.90
2023-02-11T09:13:21.422Z,34.19
2023-02-11T09:15:52.980Z,34.59
2023-02-11T09:18:23.560Z,34.58
2023-02-11T09:20:58.929Z,35.40
2023-02-11T09:23:29.880Z,35.04
2023-02-11T09:26:02.507Z,35.11
2023-02-11T09:28:34.608Z,35.29
2023-02-11T09:31:08.582Z,35.29
2023-02-11T09:33:39.361Z,35.03
2023-02-11T09:36:11.993Z,35.35
2023-02-11T09:38:48.047Z,35.77
2023-02-11T09:41:35.793Z,35.60
2023-02-11T09:44:07.073Z,35.83
2023-02-11T09:46:45.451Z,35.84
2023-02-11T09:49:20.818Z,36.14
2023-02-11T09:52:06.171Z,36.26
2023-02-11T09:54:44.121Z,36.19
2023-02-11T09:57:28.245Z,36.42
2023-02-11T09:59:59.977Z,36.22
2023-02-11T10:02:44.932Z,36.21
2023-02-11T10:05:36.060Z,36.34
2023-02-11T10:08:15.215Z,36.49
2023-02-11T10:10:53.521Z,36.35
2023-02-11T10:13:45.385Z,36.38
2023-02-11T10:16:36.103Z,36.48
2023-02-11T10:19:28.946Z,37.12
2023-02-11T10:22:09.655Z,37.56
2023-02-11T10:24:40.827Z,37.43
2023-02-11T10:27:17.616Z,37.13
2023-02-11T10:29:52.606Z,37.69
2023-02-11T10:32:33.638Z,37.77
2023-02-11T10:35:11.642Z,37.36
2023-02-11T10:37:44.546Z,37.34
2023-02-11T10:40:19.798Z,36.93
2023-02-11T10:42:55.576Z,36.27
2023-02-11T10:45:31.437Z,36.39
2023-02-11T10:48:02.356Z,36.79
2023-02-11T10:50:34.717Z,36.61
2023-02-11T10:53:21.194Z,36.85
2023-02-11T10:55:53.521Z,36.97
2023-02-11T10:58:29.584Z,37.11
2023-02-11T11:01:01.097Z,37.27
2023-02-11T11:03:35.084Z,37.25
2023-02-11T11:06:07.887Z,37.22
2023-02-11T11:08:43.929Z,37.28
2023-02-11T11:11:17.077Z,37.12
2023-02-11T11:14:03.036Z,36.92
2023-02-11T11:16:34.222Z,36.65
2023-02-11T11:19:23.315Z,36.81
2023-02-11T11:21:56.081Z,36.84
2023-02-11T11:24:30.150Z,36.90
2023-02-11T11:27:02.659Z,36.95
2023-02-11T11:29:35.533Z,37.07
2023-02-11T11:32:15.847Z,37.23
2023-02-11T11:34:51.166Z,37.03
2023-02-11T11:37:25.517Z,36.90
2023-02-11T11:39:59.695Z,36.83
2023-02-11T11:42:32.640Z,36.65
2023-02-11T11:45:06.139Z,36.19
2023-02-11T11:47:38.846Z,36.79
2023-02-11T11:50:25.070Z,37.04
2023-02-11T11:53:00.015Z,37.19
2023-02-11T11:55:37.247Z,37.09
2023-02-11T11:58:14.253Z,37.48
2023-02-11T12:00:44.631Z,37.80
2023-02-11T12:03:30.260Z,37.59
2023-02-11T12:06:14.072Z,37.96
2023-02-11T12:08:53.116Z,38.05
2023-02-11T12:11:26.699Z,38.38
2023-02-11T12:14:07.634Z,38.37
2023-02-11T12:16:48.880Z,38.65
2023-02-11T12:19:44.229Z,38.63
2023-02-11T12:22:26.985Z,38.54
2023-02-11T12:25:17.772Z,38.68
2023-02-11T12:28:02.729Z,38.62
2023-02-11T12:30:53.565Z,38.70
2023-02-11T12:33:36.868Z,38.59
2023-02-11T12:36:31.743Z,38.87
2023-02-11T12:39:13.210Z,39.44
2023-02-11T12:42:11.154Z,39.53
2023-02-11T12:44:57.378Z,39.52
2023-02-11T12:47:34.999Z,40.03
2023-02-11T12:50:19.584Z,40.18
2023-02-11T12:53:08.550Z,40.12
2023-02-11T12:55:48.382Z,40.14
2023-02-11T12:58:29.694Z,39.84
2023-02-11T13:01:09.696Z,40.07
2023-02-11T13:03:43.319Z,40.62
2023-02-11T13:06:18.004Z,40.43
2023-02-11T13:08:53.309Z,40.52
2023-02-11T13:11:29.466Z,40.61
2023-02-11T13:14:03.919Z,40.61
2023-02-11T13:16:41.689Z,40.67
2023-02-11T13:19:23.769Z,40.32
2023-02-11T13:22:08.125Z,40.42
2023-02-11T13:24:44.879Z,41.28
2023-02-11T13:27:25.803Z,40.78
2023-02-11T13:30:22.386Z,41.25
2023-02-11T13:33:20.695Z,41.17
2023-02-11T13:36:08.187Z,40.92
2023-02-11T13:38:40.438Z,41.31
2023-02-11T13:41:24.603Z,41.38
2023-02-11T13:44:37.572Z,41.88
2023-02-11T13:47:33.454Z,42.63
2023-02-11T13:50:08.093Z,42.78
2023-02-11T13:52:39.602Z,43.44
2023-02-11T13:55:22.575Z,43.53
2023-02-11T13:58:19.485Z,43.51
2023-02-11T14:00:58.224Z,43.76
2023-02-11T14:04:00.594Z,43.95
2023-02-11T14:06:50.598Z,43.98
2023-02-11T14:09:48.180Z,44.36
2023-02-11T14:12:36.151Z,44.11
2023-02-11T14:15:33.220Z,44.86
2023-02-11T14:18:24.644Z,44.86
2023-02-11T14:21:09.856Z,45.39
2023-02-11T14:23:44.030Z,45.90
2023-02-11T14:26:39.983Z,46.02
2023-02-11T14:29:19.418Z,46.35
2023-02-11T14:31:59.200Z,46.47
2023-02-11T14:34:41.390Z,46.22
2023-02-11T14:37:29.160Z,46.51
2023-02-11T14:40:08.929Z,46.58
2023-02-11T14:42:44.244Z,46.74
2023-02-11T14:45:21.064Z,46.58
2023-02-11T14:47:56.131Z,46.94
2023-02-11T14:50:34.324Z,47.26
2023-02-11T14:53:08.138Z,47.30
2023-02-11T14:55:40.854Z,46.94
2023-02-11T14:58:16.951Z,47.12
2023-02-11T15:01:06.171Z,47.24
2023-02-11T15:03:39.392Z,47.37
2023-02-11T15:06:20.735Z,47.36
2023-02-11T15:08:55.383Z,47.43
2023-02-11T15:11:28.337Z,47.23
2023-02-11T15:14:10.153Z,47.82
2023-02-11T15:16:48.933Z,47.91
2023-02-11T15:19:34.194Z,47.84
2023-02-11T15:22:10.538Z,48.03
2023-02-11T15:24:42.655Z,47.87
2023-02-11T15:27:18.714Z,48.23
2023-02-11T15:29:50.822Z,48.22
2023-02-11T15:32:25.481Z,48.39
2023-02-11T15:34:58.394Z,48.65
2023-02-11T15:37:30.049Z,48.50
2023-02-11T15:40:11.458Z,48.87
2023-02-11T15:42:52.426Z,48.57
2023-02-11T15:45:29.276Z,48.64
2023-02-11T15:48:09.782Z,48.65
2023-02-11T15:50:58.382Z,48.80
2023-02-11T15:53:32.609Z,48.95
2023-02-11T15:56:10.378Z,49.48
2023-02-11T15:58:45.360Z,49.28
2023-02-11T16:01:37.091Z,49.36
2023-02-11T16:04:13.961Z,49.25
2023-02-11T16:06:47.713Z,49.33
2023-02-11T16:09:33.827Z,49.34
2023-02-11T16:12:26.259Z,49.35
2023-02-11T16:15:05.055Z,49.39
2023-02-11T16:17:36.434Z,49.53
2023-02-11T16:20:22.015Z,49.44
2023-02-11T16:22:54.534Z,49.53
2023-02-11T16:25:36.291Z,49.56
2023-02-11T16:28:16.899Z,49.53
2023-02-11T16:30:56.524Z,49.67
2023-02-11T16:33:28.721Z,49.70
2023-02-11T16:36:02.546Z,49.79
2023-02-11T16:38:34.300Z,49.69
2023-02-11T16:41:08.171Z,49.53
2023-02-11T16:43:38.748Z,49.70
2023-02-11T16:46:15.783Z,49.73
2023-02-11T16:48:46.316Z,50.22
2023-02-11T16:51:19.274Z,50.09
2023-02-11T16:53:50.544Z,50.34
2023-02-11T16:56:22.868Z,50.52
2023-02-11T16:58:54.759Z,50.93
2023-02-11T17:01:25.702Z,51.43
2023-02-11T17:03:58.608Z,51.29
2023-02-11T17:06:31.150Z,51.54
2023-02-11T17:09:06.266Z,51.61
2023-02-11T17:11:37.968Z,51.90
2023-02-11T17:14:13.829Z,52.30
2023-02-11T17:16:51.777Z,52.25
2023-02-11T17:19:26.312Z,52.14
2023-02-11T17:21:57.981Z,52.44
2023-02-11T17:24:33.094Z,52.26
2023-02-11T17:27:04.258Z,52.14
2023-02-11T17:29:36.040Z,51.94
2023-02-11T17:32:15.413Z,51.71
2023-02-11T17:34:46.510Z,51.60
2023-02-11T17:37:17.668Z,51.48
2023-02-11T17:39:53.431Z,51.40
2023-02-11T17:42:35.912Z,51.10
2023-02-11T17:45:08.541Z,51.14
2023-02-11T17:47:39.947Z,51.24
2023-02-11T17:50:13.129Z,50.96
2023-02-11T17:52:44.766Z,50.93
2023-02-11T17:55:18.111Z,50.97
2023-02-11T17:57:52.341Z,50.98
2023-02-11T18:00:28.682Z,50.90
2023-02-11T18:03:02.880Z,51.06
2023-02-11T18:05:43.642Z,51.09
2023-02-11T18:08:20.609Z,51.00
2023-02-11T18:10:51.552Z,50.85
2023-02-11T18:13:33.218Z,50.45
2023-02-11T18:16:16.315Z,50.72
2023-02-11T18:18:47.447Z,50.71
2023-02-11T18:21:34.779Z,50.69
2023-02-11T18:24:25.910Z,50.18
2023-02-11T18:27:00.496Z,50.51
2023-02-11T18:29:32.551Z,50.50
2023-02-11T18:32:05.664Z,50.43
2023-02-11T18:34:39.743Z,50.13
2023-02-11T18:37:14.401Z,50.07
2023-02-11T18:39:51.509Z,50.11
2023-02-11T18:42:32.972Z,50.26
2023-02-11T18:45:11.688Z,50.27
2023-02-11T18:47:57.648Z,50.29
2023-02-11T18:50:32.599Z,50.04
2023-02-11T18:53:07.521Z,50.31
2023-02-11T18:55:44.042Z,50.24
2023-02-11T18:58:16.502Z,49.99
2023-02-11T19:00:57.233Z,50.09
2023-02-11T19:03:42.284Z,50.06
2023-02-11T19:06:24.550Z,50.19
2023-02-11T19:09:09.668Z,50.04
2023-02-11T19:11:53.890Z,50.37
2023-02-11T19:14:28.577Z,50.18
2023-02-11T19:17:05.295Z,50.44
2023-02-11T19:19:42.393Z,50.27
2023-02-11T19:22:13.402Z,50.35
2023-02-11T19:24:52.789Z,50.28
2023-02-11T19:27:23.240Z,50.54
2023-02-11T19:29:55.758Z,50.50
2023-02-11T19:32:32.433Z,50.60
2023-02-11T19:35:04.571Z,50.55
2023-02-11T19:37:35.561Z,50.51
2023-02-11T19:40:09.257Z,50.74
2023-02-11T19:42:40.100Z,50.69
2023-02-11T19:45:12.589Z,50.80
2023-02-11T19:47:46.862Z,50.84
2023-02-11T19:50:23.134Z,50.93
2023-02-11T19:52:55.345Z,51.07
2023-02-11T19:55:35.775Z,51.07
2023-02-11T19:58:09.326Z,50.84
2023-02-11T20:00:40.365Z,50.95
2023-02-11T20:03:17.281Z,51.03
2023-02-11T20:05:52.531Z,50.95
2023-02-11T20:08:23.292Z,51.19
2023-02-11T20:11:10.321Z,50.99
2023-02-11T20:13:42.005Z,50.84
2023-02-11T20:16:18.739Z,50.83
2023-02-11T20:18:54.872Z,51.02
2023-02-11T20:21:34.375Z,50.88
2023-02-11T20:24:09.511Z,51.10
2023-02-11T20:26:42.361Z,50.97
2023-02-11T20:29:17.219Z,51.00
2023-02-11T20:31:53.150Z,50.89
2023-02-11T20:34:25.314Z,50.80
2023-02-11T20:36:57.227Z,50.94
2023-02-11T20:39:31.231Z,50.68
2023-02-11T20:42:03.837Z,50.86
2023-02-11T20:44:37.067Z,51.00
2023-02-11T20:47:12.191Z,50.85
2023-02-11T20:49:47.344Z,51.27
2023-02-11T20:52:21.627Z,50.97
2023-02-11T20:54:54.789Z,51.16
2023-02-11T20:57:25.852Z,51.57
2023-02-11T20:59:59.425Z,51.66
2023-02-11T21:02:31.014Z,51.39
2023-02-11T21:05:05.003Z,51.24
2023-02-11T21:07:37.575Z,51.24
2023-02-11T21:10:13.046Z,51.40
2023-02-11T21:12:49.531Z,51.50
2023-02-11T21:15:25.132Z,51.19
2023-02-11T21:17:56.492Z,51.51
2023-02-11T21:20:31.834Z,51.26
2023-02-11T21:23:07.398Z,51.66
2023-02-11T21:25:38.378Z,51.75
2023-02-11T21:28:11.552Z,51.67
2023-02-11T21:30:53.357Z,51.61
2023-02-11T21:33:28.465Z,51.77
2023-02-11T21:36:01.938Z,51.91
2023-02-11T21:38:35.976Z,52.07
2023-02-11T21:41:08.198Z,52.21
2023-02-11T21:43:42.313Z,52.21
2023-02-11T21:46:17.132Z,52.38
2023-02-11T21:48:49.345Z,52.29
2023-02-11T21:51:22.271Z,52.37
2023-02-11T21:54:00.919Z,52.15
2023-02-11T21:56:33.168Z,52.13
2023-02-11T21:59:03.607Z,52.16
2023-02-11T22:01:37.521Z,52.37
2023-02-11T22:04:08.943Z,52.13
2023-02-11T22:06:43.501Z,52.04
2023-02-11T22:09:16.915Z,51.89
2023-02-11T22:11:48.969Z,52.00
2023-02-11T22:14:31.230Z,52.15
2023-02-11T22:17:04.852Z,52.14
2023-02-11T22:19:35.315Z,51.99
2023-02-11T22:22:08.138Z,51.97
2023-02-11T22:24:41.416Z,52.07
2023-02-11T22:27:17.397Z,52.22
2023-02-11T22:29:49.802Z,52.10
2023-02-11T22:32:21.248Z,52.08
2023-02-11T22:34:53.572Z,52.15
2023-02-11T22:37:25.294Z,52.35
2023-02-11T22:39:55.578Z,52.04
2023-02-11T22:42:26.363Z,52.23
2023-02-11T22:44:56.835Z,52.40
2023-02-11T22:47:32.940Z,51.92
2023-02-11T22:50:03.939Z,52.01
2023-02-11T22:52:36.589Z,51.90
2023-02-11T22:55:08.075Z,52.05
2023-02-11T22:57:38.670Z,52.08
2023-02-11T23:00:11.904Z,52.00
2023-02-11T23:02:43.661Z,52.02
2023-02-11T23:05:17.520Z,51.94
2023-02-11T23:07:47.973Z,51.75
2023-02-11T23:10:18.655Z,51.97
2023-02-11T23:12:48.935Z,51.93
2023-02-11T23:15:22.270Z,52.08
2023-02-11T23:17:53.722Z,51.68
2023-02-11T23:20:24.104Z,51.90
2023-02-11T23:22:54.532Z,52.04
2023-02-11T23:25:27.522Z,51.74
2023-02-11T23:27:58.243Z,51.99
2023-02-11T23:30:28.929Z,52.04
2023-02-11T23:32:59.393Z,52.19
2023-02-11T23:35:29.670Z,52.07
2023-02-11T23:38:00.372Z,52.38
2023-02-11T23:40:30.636Z,52.29
2023-02-11T23:43:01.767Z,52.42
2023-02-11T23:45:36.195Z,52.29
2023-02-11T23:48:07.157Z,52.19
2023-02-11T23:50:43.761Z,52.51
2023-02-11T23:53:14.561Z,52.23
2023-02-11T23:55:47.183Z,52.41
2023-02-11T23:58:17.782Z,52.49
